createdAt,value
2018-12-16T00:01:41.040Z,11.17
2018-12-16T00:06:44.628Z,9.83
2018-12-16T00:11:48.245Z,11.17
2018-12-16T00:16:51.831Z,9.03
2018-12-16T00:21:55.732Z,11.27
2018-12-16T00:27:11.067Z,11.03
2018-12-16T00:32:14.731Z,9.87
2018-12-16T00:37:18.406Z,7.67
2018-12-16T00:42:21.823Z,7.07
2018-12-16T00:47:25.372Z,7.60
2018-12-16T00:52:29.280Z,9.10
2018-12-16T00:57:32.900Z,11.93
2018-12-16T01:02:42.036Z,8.33
2018-12-16T01:07:45.693Z,11.13
2018-12-16T01:12:49.192Z,9.93
2018-12-16T01:17:52.720Z,10.00
2018-12-16T01:22:56.196Z,8.93
2018-12-16T01:27:59.632Z,6.57
2018-12-16T01:33:03.172Z,10.63
2018-12-16T01:38:06.976Z,11.43
2018-12-16T01:43:10.561Z,6.27
2018-12-16T01:48:14.269Z,10.43
2018-12-16T01:53:17.679Z,7.80
2018-12-16T01:58:21.665Z,7.63
2018-12-16T02:03:25.428Z,10.53
2018-12-16T02:08:28.900Z,11.70
2018-12-16T02:13:32.373Z,9.57
2018-12-16T02:18:36.045Z,7.63
2018-12-16T02:23:39.796Z,9.53
2018-12-16T02:28:43.256Z,6.33
2018-12-16T02:33:46.673Z,9.40
2018-12-16T02:38:50.342Z,10.17
2018-12-16T02:43:54.160Z,10.63
2018-12-16T02:48:57.614Z,7.03
2018-12-16T02:54:01.068Z,9.10
2018-12-16T02:59:04.688Z,8.43
2018-12-16T03:04:08.121Z,10.23
2018-12-16T03:09:11.832Z,9.20
2018-12-16T03:14:15.258Z,11.97
2018-12-16T03:19:18.756Z,9.90
2018-12-16T03:24:22.281Z,8.60
2018-12-16T03:29:25.738Z,12.17
2018-12-16T03:34:29.241Z,7.80
2018-12-16T03:39:32.667Z,11.53
2018-12-16T03:44:36.127Z,8.80
2018-12-16T03:49:39.853Z,11.33
2018-12-16T03:54:43.379Z,11.63
2018-12-16T03:59:47.180Z,9.87
2018-12-16T04:04:50.694Z,12.67
2018-12-16T04:09:54.162Z,11.03
2018-12-16T04:14:57.669Z,11.97
2018-12-16T04:20:01.191Z,9.87
2018-12-16T04:25:05.340Z,11.53
2018-12-16T04:30:08.950Z,10.73
2018-12-16T04:35:12.500Z,8.63
2018-12-16T04:40:16.071Z,13.27
2018-12-16T04:45:19.488Z,11.40
2018-12-16T04:50:23.145Z,12.70
2018-12-16T04:55:26.662Z,10.67
2018-12-16T05:00:30.491Z,12.83
2018-12-16T05:05:34.104Z,12.03
2018-12-16T05:10:37.799Z,12.33
2018-12-16T05:15:41.217Z,13.67
2018-12-16T05:20:44.700Z,11.20
2018-12-16T05:25:48.468Z,15.87
2018-12-16T05:30:52.015Z,15.10
2018-12-16T05:35:55.433Z,13.87
2018-12-16T05:40:59.039Z,14.90
2018-12-16T05:46:02.521Z,15.00
2018-12-16T05:51:06.036Z,13.73
2018-12-16T05:56:09.752Z,16.43
2018-12-16T06:01:13.224Z,15.13
2018-12-16T06:06:16.666Z,14.03
2018-12-16T06:11:20.144Z,14.47
2018-12-16T06:16:24.133Z,14.80
2018-12-16T06:21:27.644Z,13.77
2018-12-16T06:26:31.408Z,16.37
2018-12-16T06:31:34.828Z,14.70
2018-12-16T06:36:38.488Z,16.13
2018-12-16T06:41:42.060Z,13.80
2018-12-16T06:46:45.618Z,15.63
2018-12-16T06:51:49.132Z,16.53
2018-12-16T06:56:52.712Z,11.37
2018-12-16T07:01:56.208Z,17.67
2018-12-16T07:06:59.724Z,17.23
2018-12-16T07:12:03.399Z,14.70
2018-12-16T07:17:07.020Z,15.33
2018-12-16T07:22:10.588Z,15.93
2018-12-16T07:27:14.245Z,15.53
2018-12-16T07:32:17.708Z,17.47
2018-12-16T07:37:21.248Z,16.33
2018-12-16T07:42:24.937Z,16.10
2018-12-16T07:47:28.433Z,18.40
2018-12-16T07:52:31.863Z,18.30
2018-12-16T07:57:35.536Z,17.20
2018-12-16T08:02:39.116Z,17.07
2018-12-16T08:07:42.695Z,15.03
2018-12-16T08:12:46.384Z,16.73
2018-12-16T08:17:49.836Z,17.83
2018-12-16T08:22:53.440Z,17.17
2018-12-16T08:27:57.065Z,17.00
2018-12-16T08:33:00.493Z,15.17
2018-12-16T08:38:04.037Z,17.70
2018-12-16T08:43:07.444Z,17.10
2018-12-16T08:48:11.244Z,16.93
2018-12-16T08:53:14.916Z,18.17
2018-12-16T08:58:18.357Z,17.83
2018-12-16T09:03:21.787Z,17.97
2018-12-16T09:08:25.255Z,18.47
2018-12-16T09:13:28.864Z,15.73
2018-12-16T09:18:32.661Z,16.63
2018-12-16T09:23:36.207Z,16.97
2018-12-16T09:28:40.703Z,18.47
2018-12-16T09:33:44.581Z,18.27
2018-12-16T09:38:48.291Z,17.03
2018-12-16T09:43:51.896Z,20.37
2018-12-16T09:48:55.628Z,19.50
2018-12-16T09:53:59.232Z,20.53
2018-12-16T09:59:02.655Z,19.13
2018-12-16T10:04:06.259Z,16.87
2018-12-16T10:09:09.936Z,19.70
2018-12-16T10:14:13.443Z,18.87
2018-12-16T10:19:16.904Z,20.57
2018-12-16T10:24:20.420Z,18.10
2018-12-16T10:29:24.105Z,19.27
2018-12-16T10:34:27.515Z,17.33
2018-12-16T10:39:31.172Z,17.87
2018-12-16T10:44:34.621Z,20.67
2018-12-16T10:49:38.040Z,16.97
2018-12-16T10:54:41.593Z,19.67
2018-12-16T10:59:45.126Z,17.83
2018-12-16T11:04:48.538Z,19.30
2018-12-16T11:09:52.151Z,19.70
2018-12-16T11:14:56.488Z,19.87
2018-12-16T11:20:00.109Z,17.93
2018-12-16T11:25:05.857Z,18.87
2018-12-16T11:30:10.277Z,18.70
2018-12-16T11:35:14.076Z,17.73
2018-12-16T11:40:17.663Z,18.07
2018-12-16T11:45:21.464Z,20.17
2018-12-16T11:50:25.392Z,20.20
2018-12-16T11:55:29.515Z,19.23
2018-12-16T12:00:32.921Z,19.70
2018-12-16T12:05:36.429Z,18.97
2018-12-16T12:10:40.059Z,19.87
2018-12-16T12:15:43.575Z,19.13
2018-12-16T12:20:47.089Z,18.50
2018-12-16T12:25:50.651Z,18.37
2018-12-16T12:30:54.504Z,20.03
2018-12-16T12:35:57.952Z,19.30
2018-12-16T12:41:01.369Z,19.73
2018-12-16T12:46:05.025Z,18.70
2018-12-16T12:51:08.488Z,19.93
2018-12-16T12:56:12.049Z,20.20
2018-12-16T13:01:15.505Z,20.33
2018-12-16T13:06:19.072Z,19.60
2018-12-16T13:11:22.853Z,20.30
2018-12-16T13:16:26.356Z,19.90
2018-12-16T13:21:30.244Z,18.90
2018-12-16T13:26:34.317Z,24.87
2018-12-16T13:31:37.884Z,20.13
2018-12-16T13:36:41.449Z,21.60
2018-12-16T13:41:45.052Z,21.07
2018-12-16T13:46:48.532Z,22.17
2018-12-16T13:51:52.266Z,24.57
2018-12-16T13:56:55.696Z,20.97
2018-12-16T14:01:59.156Z,21.47
2018-12-16T14:07:02.684Z,24.83
2018-12-16T14:12:06.287Z,25.10
2018-12-16T14:17:09.756Z,24.57
2018-12-16T14:22:13.347Z,28.07
2018-12-16T14:27:16.789Z,22.13
2018-12-16T14:32:20.520Z,24.77
2018-12-16T14:37:24.109Z,25.77
2018-12-16T14:42:27.696Z,24.73
2018-12-16T14:47:31.308Z,24.30
2018-12-16T14:52:34.812Z,23.17
2018-12-16T14:57:38.212Z,28.97
2018-12-16T15:02:41.752Z,31.40
2018-12-16T15:07:45.264Z,29.17
2018-12-16T15:12:48.744Z,31.93
2018-12-16T15:17:52.454Z,30.17
2018-12-16T15:22:56.168Z,28.73
2018-12-16T15:27:59.932Z,29.20
2018-12-16T15:33:03.368Z,25.80
2018-12-16T15:38:06.953Z,27.07
2018-12-16T15:43:10.459Z,25.70
2018-12-16T15:48:14.048Z,26.03
2018-12-16T15:53:17.768Z,26.20
2018-12-16T15:58:21.337Z,26.27
2018-12-16T16:03:25.004Z,25.73
2018-12-16T16:08:28.568Z,26.97
2018-12-16T16:13:32.035Z,25.63
2018-12-16T16:18:35.756Z,27.73
2018-12-16T16:23:39.264Z,26.43
2018-12-16T16:28:42.696Z,25.63
2018-12-16T16:33:46.263Z,28.97
2018-12-16T16:38:49.804Z,28.13
2018-12-16T16:43:53.528Z,25.27
2018-12-16T16:48:57.096Z,24.87
2018-12-16T16:54:00.540Z,35.97
2018-12-16T16:59:04.100Z,34.50
2018-12-16T17:04:07.647Z,32.17
2018-12-16T17:09:11.152Z,44.03
2018-12-16T17:14:14.930Z,32.60
2018-12-16T17:19:18.562Z,28.07
2018-12-16T17:24:22.203Z,27.17
2018-12-16T17:29:25.771Z,29.67
2018-12-16T17:34:29.379Z,29.80
2018-12-16T17:39:33.344Z,24.60
2018-12-16T17:44:36.835Z,24.83
2018-12-16T17:49:40.456Z,22.60
2018-12-16T17:54:44.768Z,24.93
2018-12-16T17:59:48.719Z,25.87
2018-12-16T18:04:52.255Z,25.03
2018-12-16T18:09:55.859Z,26.87
2018-12-16T18:14:59.379Z,27.80
2018-12-16T18:20:03.305Z,26.90
2018-12-16T18:25:07.041Z,28.90
2018-12-16T18:30:11.088Z,25.37
2018-12-16T18:35:15.057Z,26.30
2018-12-16T18:40:18.868Z,27.70
2018-12-16T18:45:22.284Z,26.23
2018-12-16T18:50:25.859Z,26.07
2018-12-16T18:55:29.273Z,26.07
2018-12-16T19:00:32.780Z,28.10
2018-12-16T19:05:36.274Z,25.73
2018-12-16T19:10:39.796Z,36.83
2018-12-16T19:15:43.838Z,30.07
2018-12-16T19:20:47.391Z,33.70
2018-12-16T19:25:50.966Z,29.30
2018-12-16T19:30:54.794Z,27.00
2018-12-16T19:35:58.456Z,24.13
2018-12-16T19:41:01.967Z,24.17
2018-12-16T19:46:05.689Z,25.50
2018-12-16T19:51:09.124Z,25.20
2018-12-16T19:56:12.605Z,42.57
2018-12-16T20:01:16.073Z,45.30
2018-12-16T20:06:24.972Z,32.07
2018-12-16T20:11:28.471Z,30.90
2018-12-16T20:16:32.039Z,30.47
2018-12-16T20:21:35.712Z,25.23
2018-12-16T20:26:39.259Z,23.57
2018-12-16T20:31:42.856Z,27.43
2018-12-16T20:36:46.395Z,32.13
2018-12-16T20:41:49.864Z,24.80
2018-12-16T20:46:53.520Z,27.70
2018-12-16T20:51:57.011Z,32.80
2018-12-16T20:57:00.729Z,26.30
2018-12-16T21:02:04.352Z,24.63
2018-12-16T21:07:07.896Z,27.80
2018-12-16T21:13:18.956Z,24.90
2018-12-16T21:18:25.476Z,26.87
2018-12-16T21:23:29.836Z,26.37
2018-12-16T21:28:33.369Z,26.60
2018-12-16T21:33:37.178Z,25.70
2018-12-16T21:38:40.925Z,28.13
2018-12-16T21:43:44.544Z,29.77
2018-12-16T21:48:47.948Z,25.17
2018-12-16T21:53:51.776Z,25.70
2018-12-16T21:58:55.353Z,26.07
2018-12-16T22:03:58.840Z,24.43
2018-12-16T22:09:02.480Z,25.47
2018-12-16T22:14:06.184Z,25.10
2018-12-16T22:19:09.668Z,27.63
2018-12-16T22:24:13.301Z,26.70
2018-12-16T22:29:16.735Z,26.37
2018-12-16T22:34:20.157Z,25.40
2018-12-16T22:39:24.841Z,24.63
2018-12-16T22:44:28.476Z,25.97
2018-12-16T22:49:31.904Z,25.67
2018-12-16T22:54:35.441Z,25.83
2018-12-16T22:59:38.952Z,25.57
2018-12-16T23:04:42.485Z,26.27
2018-12-16T23:09:46.024Z,26.37
2018-12-16T23:14:51.066Z,24.10
2018-12-16T23:20:00.232Z,25.87
2018-12-16T23:25:04.094Z,25.07
2018-12-16T23:30:08.539Z,27.13
2018-12-16T23:35:12.035Z,26.60
2018-12-16T23:40:15.500Z,27.27
2018-12-16T23:45:19.223Z,25.90
2018-12-16T23:50:22.692Z,26.00
2018-12-16T23:55:26.373Z,25.43
